createdAt,value
2022-10-09T00:01:28.672Z,100944.60
2022-10-09T00:03:57.644Z,100946.40
2022-10-09T00:06:29.630Z,100948.00
2022-10-09T00:08:58.623Z,100950.60
2022-10-09T00:11:29.432Z,100953.20
2022-10-09T00:13:58.418Z,100954.40
2022-10-09T00:16:27.793Z,100962.00
2022-10-09T00:18:57.178Z,100958.60
2022-10-09T00:21:27.019Z,100954.60
2022-10-09T00:23:57.803Z,100960.60
2022-10-09T00:26:27.474Z,100960.80
2022-10-09T00:28:58.545Z,100965.00
2022-10-09T00:31:27.410Z,100966.40
2022-10-09T00:33:56.102Z,100968.80
2022-10-09T00:36:27.901Z,100966.00
2022-10-09T00:38:56.954Z,100970.60
2022-10-09T00:41:28.311Z,100969.00
2022-10-09T00:43:59.048Z,100968.40
2022-10-09T00:46:34.949Z,100975.40
2022-10-09T00:49:12.242Z,100976.60
2022-10-09T00:51:44.041Z,100985.20
2022-10-09T00:54:15.748Z,100987.60
2022-10-09T00:56:44.327Z,100984.00
2022-10-09T00:59:13.112Z,100986.40
2022-10-09T01:01:42.531Z,100985.20
2022-10-09T01:04:11.413Z,100984.80
2022-10-09T01:06:53.416Z,100986.60
2022-10-09T01:09:28.178Z,100983.60
2022-10-09T01:12:02.606Z,100984.00
2022-10-09T01:14:37.026Z,100989.20
2022-10-09T01:17:13.729Z,100990.80
2022-10-09T01:19:57.161Z,100998.00
2022-10-09T01:22:49.816Z,100994.00
2022-10-09T01:25:26.021Z,101001.20
2022-10-09T01:27:55.440Z,101005.20
2022-10-09T01:30:24.214Z,101004.20
2022-10-09T01:32:58.920Z,101007.80
2022-10-09T01:35:28.643Z,101007.60
2022-10-09T01:37:58.473Z,101011.80
2022-10-09T01:40:28.297Z,101012.80
2022-10-09T01:42:58.064Z,101021.20
2022-10-09T01:45:38.358Z,101019.80
2022-10-09T01:48:13.334Z,101017.00
2022-10-09T01:50:45.547Z,101018.20
2022-10-09T01:53:18.316Z,101020.80
2022-10-09T01:55:54.207Z,101022.60
2022-10-09T01:58:28.329Z,101023.00
2022-10-09T02:01:04.935Z,101021.00
2022-10-09T02:03:35.681Z,101028.40
2022-10-09T02:06:08.960Z,101032.20
2022-10-09T02:08:39.165Z,101031.40
2022-10-09T02:11:10.247Z,101031.40
2022-10-09T02:13:42.185Z,101035.60
2022-10-09T02:16:17.232Z,101036.80
2022-10-09T02:18:48.341Z,101042.60
2022-10-09T02:21:20.805Z,101041.60
2022-10-09T02:23:50.336Z,101039.40
2022-10-09T02:26:19.466Z,101042.80
2022-10-09T02:28:47.896Z,101043.00
2022-10-09T02:31:22.712Z,101049.80
2022-10-09T02:33:56.492Z,101050.20
2022-10-09T02:36:25.697Z,101055.00
2022-10-09T02:38:55.113Z,101060.20
2022-10-09T02:41:24.000Z,101056.40
2022-10-09T02:43:52.625Z,101061.40
2022-10-09T02:46:20.973Z,101062.40
2022-10-09T02:48:49.741Z,101066.00
2022-10-09T02:51:18.427Z,101072.80
2022-10-09T02:53:47.141Z,101072.40
2022-10-09T02:56:15.585Z,101077.60
2022-10-09T02:58:43.880Z,101084.40
2022-10-09T03:01:12.466Z,101084.60
2022-10-09T03:03:42.638Z,101081.00
2022-10-09T03:06:13.817Z,101082.20
2022-10-09T03:08:44.027Z,101084.60
2022-10-09T03:11:13.731Z,101080.60
2022-10-09T03:13:42.483Z,101077.00
2022-10-09T03:16:13.077Z,101082.20
2022-10-09T03:18:41.898Z,101086.20
2022-10-09T03:21:13.163Z,101091.80
2022-10-09T03:23:42.821Z,101090.40
2022-10-09T03:26:13.762Z,101092.40
2022-10-09T03:28:44.302Z,101100.40
2022-10-09T03:31:22.601Z,101101.20
2022-10-09T03:34:01.113Z,101111.40
2022-10-09T03:36:29.603Z,101114.20
2022-10-09T03:38:58.055Z,101116.40
2022-10-09T03:41:27.121Z,101128.40
2022-10-09T03:43:55.566Z,101128.20
2022-10-09T03:46:24.079Z,101128.40
2022-10-09T03:48:52.386Z,101128.20
2022-10-09T03:51:20.678Z,101128.20
2022-10-09T03:53:49.240Z,101127.20
2022-10-09T03:56:17.384Z,101127.40
2022-10-09T03:58:45.564Z,101132.20
2022-10-09T04:01:13.988Z,101134.60
2022-10-09T04:03:42.414Z,101140.80
2022-10-09T04:06:11.292Z,101138.60
2022-10-09T04:08:39.543Z,101144.40
2022-10-09T04:11:07.861Z,101142.20
2022-10-09T04:13:36.215Z,101145.80
2022-10-09T04:16:05.167Z,101152.60
2022-10-09T04:18:33.485Z,101159.00
2022-10-09T04:21:01.806Z,101160.00
2022-10-09T04:23:30.260Z,101157.60
2022-10-09T04:26:01.802Z,101156.00
2022-10-09T04:28:31.587Z,101156.80
2022-10-09T04:30:59.890Z,101161.00
2022-10-09T04:33:28.572Z,101161.60
2022-10-09T04:35:57.739Z,101159.60
2022-10-09T04:38:26.136Z,101159.20
2022-10-09T04:40:58.253Z,101158.20
2022-10-09T04:43:27.355Z,101154.60
2022-10-09T04:45:56.283Z,101160.00
2022-10-09T04:48:24.812Z,101161.40
2022-10-09T04:50:53.511Z,101162.40
2022-10-09T04:53:21.802Z,101165.40
2022-10-09T04:55:50.094Z,101171.80
2022-10-09T04:58:18.477Z,101175.00
2022-10-09T05:00:47.486Z,101173.20
2022-10-09T05:03:15.800Z,101176.20
2022-10-09T05:05:44.154Z,101176.60
2022-10-09T05:08:12.387Z,101182.20
2022-10-09T05:10:40.816Z,101185.80
2022-10-09T05:13:09.211Z,101185.20
2022-10-09T05:15:37.902Z,101192.60
2022-10-09T05:18:06.441Z,101194.60
2022-10-09T05:20:39.547Z,101197.80
2022-10-09T05:23:08.027Z,101193.40
2022-10-09T05:25:36.648Z,101201.20
2022-10-09T05:28:07.062Z,101198.60
2022-10-09T05:30:39.861Z,101198.00
2022-10-09T05:33:08.373Z,101197.80
2022-10-09T05:35:37.262Z,101199.80
2022-10-09T05:38:05.696Z,101199.60
2022-10-09T05:40:34.123Z,101200.00
2022-10-09T05:43:02.546Z,101203.00
2022-10-09T05:45:30.963Z,101213.80
2022-10-09T05:47:59.821Z,101215.80
2022-10-09T05:50:28.115Z,101221.20
2022-10-09T05:52:56.562Z,101221.60
2022-10-09T05:55:26.597Z,101222.80
2022-10-09T05:57:55.123Z,101222.00
2022-10-09T06:00:23.505Z,101218.00
2022-10-09T06:02:52.176Z,101223.80
2022-10-09T06:05:21.301Z,101231.40
2022-10-09T06:07:49.948Z,101234.40
2022-10-09T06:10:18.503Z,101239.80
2022-10-09T06:12:47.119Z,101241.40
2022-10-09T06:15:15.893Z,101246.60
2022-10-09T06:17:44.241Z,101242.40
2022-10-09T06:20:12.619Z,101246.00
2022-10-09T06:22:41.144Z,101245.60
2022-10-09T06:25:10.559Z,101250.00
2022-10-09T06:27:39.043Z,101256.00
2022-10-09T06:30:10.288Z,101257.60
2022-10-09T06:32:38.614Z,101261.00
2022-10-09T06:35:09.448Z,101265.80
2022-10-09T06:37:37.827Z,101264.20
2022-10-09T06:40:08.174Z,101271.00
2022-10-09T06:42:36.754Z,101279.00
2022-10-09T06:45:11.226Z,101278.40
2022-10-09T06:47:39.691Z,101280.80
2022-10-09T06:50:10.283Z,101276.60
2022-10-09T06:52:38.496Z,101282.00
2022-10-09T06:55:08.193Z,101280.80
2022-10-09T06:57:37.104Z,101285.40
2022-10-09T07:00:08.433Z,101286.00
2022-10-09T07:02:41.770Z,101294.40
2022-10-09T07:05:12.281Z,101295.20
2022-10-09T07:07:41.630Z,101300.00
2022-10-09T07:10:10.664Z,101295.20
2022-10-09T07:12:39.623Z,101300.20
2022-10-09T07:15:10.395Z,101301.60
2022-10-09T07:17:38.673Z,101301.00
2022-10-09T07:20:07.964Z,101305.00
2022-10-09T07:22:36.237Z,101306.20
2022-10-09T07:25:06.615Z,101306.40
2022-10-09T07:27:35.535Z,101306.60
2022-10-09T07:30:07.021Z,101313.00
2022-10-09T07:32:35.663Z,101312.20
2022-10-09T07:35:05.262Z,101318.40
2022-10-09T07:37:34.048Z,101317.00
2022-10-09T07:40:02.527Z,101319.00
2022-10-09T07:42:30.857Z,101324.00
2022-10-09T07:44:59.278Z,101321.60
2022-10-09T07:47:27.782Z,101330.80
2022-10-09T07:49:56.618Z,101332.60
2022-10-09T07:52:28.113Z,101331.60
2022-10-09T07:54:59.735Z,101334.00
2022-10-09T07:57:28.036Z,101336.40
2022-10-09T07:59:56.436Z,101335.20
2022-10-09T08:02:27.640Z,101337.80
2022-10-09T08:04:56.028Z,101342.00
2022-10-09T08:07:24.639Z,101338.60
2022-10-09T08:09:53.551Z,101340.20
2022-10-09T08:12:22.039Z,101345.60
2022-10-09T08:14:50.509Z,101343.20
2022-10-09T08:17:18.971Z,101341.60
2022-10-09T08:19:47.905Z,101340.40
2022-10-09T08:22:16.265Z,101337.40
2022-10-09T08:24:44.730Z,101345.40
2022-10-09T08:27:13.143Z,101342.80
2022-10-09T08:29:41.495Z,101341.20
2022-10-09T08:32:09.855Z,101345.80
2022-10-09T08:34:38.312Z,101343.20
2022-10-09T08:37:06.699Z,101345.40
2022-10-09T08:39:57.150Z,101341.40
2022-10-09T08:42:31.329Z,101348.80
2022-10-09T08:44:59.658Z,101347.60
2022-10-09T08:47:37.922Z,101349.60
2022-10-09T08:50:14.819Z,101350.60
2022-10-09T08:52:51.592Z,101352.20
2022-10-09T08:55:23.692Z,101353.20
2022-10-09T08:57:59.021Z,101358.40
2022-10-09T09:00:31.833Z,101353.40
2022-10-09T09:03:24.730Z,101357.20
2022-10-09T09:06:02.477Z,101359.60
2022-10-09T09:08:41.607Z,101356.80
2022-10-09T09:11:22.060Z,101356.60
2022-10-09T09:14:02.599Z,101359.20
2022-10-09T09:16:42.677Z,101360.60
2022-10-09T09:19:24.903Z,101354.60
2022-10-09T09:21:54.323Z,101358.80
2022-10-09T09:24:33.725Z,101361.20
2022-10-09T09:27:10.136Z,101358.60
2022-10-09T09:29:43.163Z,101355.40
2022-10-09T09:32:18.010Z,101356.00
2022-10-09T09:34:47.076Z,101368.00
2022-10-09T09:37:15.800Z,101365.00
2022-10-09T09:40:34.475Z,101357.00
2022-10-09T09:42:33.829Z,101355.60
2022-10-09T09:45:04.647Z,101354.60
2022-10-09T09:47:39.275Z,101350.60
2022-10-09T09:50:28.566Z,101345.00
2022-10-09T09:53:04.382Z,101354.00
2022-10-09T09:55:35.514Z,101354.40
2022-10-09T09:58:06.833Z,101353.00
2022-10-09T10:00:35.682Z,101346.80
2022-10-09T10:03:13.838Z,101341.80
2022-10-09T10:05:43.678Z,101346.00
2022-10-09T10:08:30.294Z,101346.80
2022-10-09T10:11:02.074Z,101343.20
2022-10-09T10:13:36.759Z,101342.00
2022-10-09T10:16:07.608Z,101343.20
2022-10-09T10:18:41.319Z,101343.20
2022-10-09T10:21:14.198Z,101339.80
2022-10-09T10:23:44.530Z,101346.00
2022-10-09T10:26:42.186Z,101339.60
2022-10-09T10:30:18.047Z,101341.80
2022-10-09T10:32:57.924Z,101344.40
2022-10-09T10:35:43.834Z,101345.80
2022-10-09T10:38:17.928Z,101343.40
2022-10-09T10:40:53.792Z,101345.20
2022-10-09T10:43:33.218Z,101339.00
2022-10-09T10:46:10.402Z,101347.80
2022-10-09T10:48:46.746Z,101350.60
2022-10-09T10:51:38.531Z,101354.20
2022-10-09T10:54:20.976Z,101355.80
2022-10-09T10:57:06.450Z,101345.80
2022-10-09T10:59:42.836Z,101356.00
2022-10-09T11:02:41.042Z,101358.20
2022-10-09T11:05:22.479Z,101356.20
2022-10-09T11:08:03.284Z,101353.60
2022-10-09T11:10:37.154Z,101348.80
2022-10-09T11:13:15.105Z,101350.20
2022-10-09T11:15:52.712Z,101349.20
2022-10-09T11:18:48.433Z,101342.60
2022-10-09T11:21:36.517Z,101341.40
2022-10-09T11:24:23.541Z,101336.40
2022-10-09T11:27:03.601Z,101335.60
2022-10-09T11:29:37.551Z,101328.20
2022-10-09T11:32:13.113Z,101335.60
2022-10-09T11:34:46.582Z,101332.20
2022-10-09T11:37:22.010Z,101333.40
2022-10-09T11:39:50.779Z,101325.60
2022-10-09T11:42:23.860Z,101325.60
2022-10-09T11:45:06.725Z,101322.20
2022-10-09T11:47:42.449Z,101193.60
2022-10-09T11:50:33.602Z,101163.80
2022-10-09T11:53:08.524Z,101180.20
2022-10-09T11:55:37.516Z,101278.40
2022-10-09T11:58:21.338Z,101326.60
2022-10-09T12:00:53.441Z,101326.20
2022-10-09T12:03:33.041Z,101322.00
2022-10-09T12:06:09.121Z,101318.80
2022-10-09T12:08:39.816Z,101313.20
2022-10-09T12:11:14.130Z,101255.80
2022-10-09T12:13:49.977Z,101183.00
2022-10-09T12:16:40.129Z,101198.80
2022-10-09T12:19:19.445Z,101215.80
2022-10-09T12:21:54.013Z,101224.60
2022-10-09T12:24:26.023Z,101238.80
2022-10-09T12:26:56.111Z,101242.00
2022-10-09T12:29:41.810Z,101310.00
2022-10-09T12:32:26.919Z,101304.60
2022-10-09T12:35:26.959Z,101244.80
2022-10-09T12:37:58.394Z,101247.60
2022-10-09T12:43:54.747Z,101305.80
2022-10-09T12:46:40.494Z,101299.20
2022-10-09T12:49:19.012Z,101246.40
2022-10-09T12:51:56.061Z,101241.20
2022-10-09T12:54:25.431Z,101245.40
2022-10-09T12:56:56.672Z,101248.00
2022-10-09T12:59:27.257Z,101251.60
2022-10-09T13:01:58.475Z,101254.60
2022-10-09T13:04:30.742Z,101250.60
2022-10-09T13:07:02.234Z,101255.40
2022-10-09T13:09:37.724Z,101253.00
2022-10-09T13:12:09.629Z,101293.80
2022-10-09T13:14:44.159Z,101256.00
2022-10-09T13:17:28.719Z,101298.60
2022-10-09T13:19:59.964Z,101256.40
2022-10-09T13:22:31.113Z,101261.40
2022-10-09T13:25:06.150Z,101259.20
2022-10-09T13:27:39.231Z,101253.60
2022-10-09T13:30:11.777Z,101250.40
2022-10-09T13:32:42.253Z,101253.20
2022-10-09T13:35:11.130Z,101254.40
2022-10-09T13:37:39.720Z,101253.20
2022-10-09T13:40:18.158Z,101256.80
2022-10-09T13:42:52.451Z,101260.60
2022-10-09T13:45:21.276Z,101258.40
2022-10-09T13:47:50.153Z,101262.60
2022-10-09T13:50:19.158Z,101262.40
2022-10-09T13:52:47.706Z,101261.60
2022-10-09T13:55:16.685Z,101265.60
2022-10-09T13:57:45.864Z,101259.20
2022-10-09T14:00:15.330Z,101257.40
2022-10-09T14:02:44.329Z,101261.20
2022-10-09T14:05:13.997Z,101257.20
2022-10-09T14:07:42.627Z,101262.60
2022-10-09T14:10:11.395Z,101264.00
2022-10-09T14:12:39.961Z,101263.40
2022-10-09T14:15:09.470Z,101262.00
2022-10-09T14:17:37.964Z,101263.80
2022-10-09T14:20:07.877Z,101283.00
2022-10-09T14:22:36.377Z,101264.40
2022-10-09T14:25:06.144Z,101263.40
2022-10-09T14:30:11.322Z,101257.80
2022-10-09T14:32:39.683Z,101255.20
2022-10-09T14:35:09.397Z,101257.20
2022-10-09T14:37:41.515Z,101253.40
2022-10-09T14:40:12.098Z,101254.00
2022-10-09T14:42:40.967Z,101250.20
2022-10-09T14:45:11.582Z,101248.80
2022-10-09T14:47:40.018Z,101242.60
2022-10-09T14:50:09.994Z,101249.60
2022-10-09T14:52:38.344Z,101248.20
2022-10-09T14:55:08.052Z,101247.60
2022-10-09T14:57:36.487Z,101246.60
2022-10-09T15:00:07.456Z,101254.80
2022-10-09T15:02:35.914Z,101254.60
2022-10-09T15:05:05.193Z,101255.20
2022-10-09T15:07:33.777Z,101253.60
2022-10-09T15:10:02.127Z,101258.60
2022-10-09T15:12:30.466Z,101258.40
2022-10-09T15:14:59.177Z,101256.40
2022-10-09T15:17:27.395Z,101257.80
2022-10-09T15:19:55.677Z,101254.60
2022-10-09T15:22:23.964Z,101247.80
2022-10-09T15:24:52.875Z,101246.80
2022-10-09T15:27:21.216Z,101245.60
2022-10-09T15:29:49.646Z,101245.80
2022-10-09T15:32:17.999Z,101241.00
2022-10-09T15:34:46.472Z,101238.20
2022-10-09T15:37:14.838Z,101240.00
2022-10-09T15:39:43.132Z,101236.80
2022-10-09T15:42:11.529Z,101233.80
2022-10-09T15:44:41.964Z,101230.80
2022-10-09T15:47:13.613Z,101231.60
2022-10-09T15:49:45.045Z,101231.40
2022-10-09T15:52:13.438Z,101236.40
2022-10-09T15:54:42.206Z,101233.60
2022-10-09T15:57:10.563Z,101230.40
2022-10-09T15:59:40.825Z,101228.60
2022-10-09T16:02:10.738Z,101228.40
2022-10-09T16:04:39.300Z,101231.00
2022-10-09T16:07:07.721Z,101225.80
2022-10-09T16:09:37.423Z,101228.20
2022-10-09T16:12:05.891Z,101223.00
2022-10-09T16:14:34.177Z,101223.40
2022-10-09T16:17:02.465Z,101225.40
2022-10-09T16:19:30.934Z,101224.80
2022-10-09T16:21:59.314Z,101231.60
2022-10-09T16:24:27.753Z,101237.20
2022-10-09T16:26:56.549Z,101240.60
2022-10-09T16:29:25.877Z,101240.00
2022-10-09T16:31:55.865Z,101238.60
2022-10-09T16:34:24.166Z,101241.00
2022-10-09T16:36:52.562Z,101238.20
2022-10-09T16:39:22.999Z,101244.00
2022-10-09T16:41:51.280Z,101241.40
2022-10-09T16:44:19.671Z,101243.80
2022-10-09T16:46:48.016Z,101242.80
2022-10-09T16:49:21.338Z,101244.40
2022-10-09T16:51:52.519Z,101235.80
2022-10-09T16:54:20.872Z,101239.20
2022-10-09T16:56:49.197Z,101240.00
2022-10-09T16:59:17.570Z,101244.00
2022-10-09T17:01:47.092Z,101240.60
2022-10-09T17:04:16.905Z,101243.80
2022-10-09T17:06:45.886Z,101243.40
2022-10-09T17:09:14.963Z,101246.00
2022-10-09T17:11:43.481Z,101242.00
2022-10-09T17:14:13.048Z,101243.60
2022-10-09T17:16:42.418Z,101244.60
2022-10-09T17:19:11.486Z,101249.40
2022-10-09T17:21:40.872Z,101247.20
2022-10-09T17:24:12.463Z,101247.20
2022-10-09T17:26:40.779Z,101243.80
2022-10-09T17:31:52.840Z,101242.00
2022-10-09T17:34:21.229Z,101238.60
2022-10-09T17:36:49.681Z,101237.80
2022-10-09T17:39:18.452Z,101242.40
2022-10-09T17:41:50.726Z,101242.80
2022-10-09T17:44:20.786Z,101239.20
2022-10-09T17:46:49.234Z,101236.80
2022-10-09T17:49:17.628Z,101237.80
2022-10-09T17:51:46.654Z,101234.40
2022-10-09T17:54:16.630Z,101235.20
2022-10-09T17:56:45.522Z,101233.40
2022-10-09T17:59:15.085Z,101235.20
2022-10-09T18:01:43.659Z,101231.00
2022-10-09T18:04:15.570Z,101236.60
2022-10-09T18:06:44.261Z,101237.00
2022-10-09T18:09:13.040Z,101235.20
2022-10-09T18:11:42.070Z,101238.00
2022-10-09T18:14:11.130Z,101240.20
2022-10-09T18:16:39.933Z,101237.80
2022-10-09T18:19:11.571Z,101240.40
2022-10-09T18:21:41.307Z,101234.40
2022-10-09T18:24:10.595Z,101237.80
2022-10-09T18:26:39.116Z,101233.40
2022-10-09T18:29:07.626Z,101236.20
2022-10-09T18:31:37.145Z,101244.80
2022-10-09T18:34:05.657Z,101246.40
2022-10-09T18:36:34.375Z,101247.20
2022-10-09T18:39:05.175Z,101239.80
2022-10-09T18:41:33.991Z,101238.60
2022-10-09T18:44:02.820Z,101241.60
2022-10-09T18:46:36.079Z,101243.40
2022-10-09T18:49:09.312Z,101246.00
2022-10-09T18:51:39.225Z,101245.60
2022-10-09T18:54:08.603Z,101240.20
2022-10-09T18:56:37.665Z,101237.60
2022-10-09T18:59:10.215Z,101235.40
2022-10-09T19:01:38.668Z,101234.60
2022-10-09T19:04:06.952Z,101232.80
2022-10-09T19:06:38.212Z,101236.40
2022-10-09T19:09:06.723Z,101233.20
2022-10-09T19:11:35.462Z,101233.40
2022-10-09T19:14:04.622Z,101232.80
2022-10-09T19:16:34.360Z,101233.00
2022-10-09T19:19:03.046Z,101229.80
2022-10-09T19:21:31.677Z,101227.80
2022-10-09T19:24:03.851Z,101232.20
2022-10-09T19:26:34.600Z,101234.20
2022-10-09T19:29:03.918Z,101229.80
2022-10-09T19:31:32.424Z,101233.20
2022-10-09T19:34:01.402Z,101226.40
2022-10-09T19:36:32.490Z,101231.00
2022-10-09T19:39:01.505Z,101233.20
2022-10-09T19:41:30.333Z,101236.20
2022-10-09T19:43:59.184Z,101241.20
2022-10-09T19:46:28.047Z,101239.20
2022-10-09T19:48:56.742Z,101239.80
2022-10-09T19:51:26.860Z,101237.80
2022-10-09T19:53:55.807Z,101238.40
2022-10-09T19:56:26.749Z,101236.20
2022-10-09T19:58:56.466Z,101231.20
2022-10-09T20:01:26.526Z,101231.40
2022-10-09T20:03:55.733Z,101233.20
2022-10-09T20:06:24.734Z,101231.80
2022-10-09T20:09:04.598Z,101226.80
2022-10-09T20:11:34.330Z,101229.00
2022-10-09T20:14:04.371Z,101229.20
2022-10-09T20:16:33.283Z,101228.40
2022-10-09T20:19:02.441Z,101234.00
2022-10-09T20:21:32.858Z,101234.00
2022-10-09T20:24:01.606Z,101230.60
2022-10-09T20:26:32.570Z,101236.00
2022-10-09T20:29:00.963Z,101237.80
2022-10-09T20:31:30.462Z,101233.40
2022-10-09T20:33:58.857Z,101231.20
2022-10-09T20:36:29.531Z,101230.40
2022-10-09T20:38:58.787Z,101224.60
2022-10-09T20:41:30.413Z,101221.40
2022-10-09T20:44:00.556Z,101219.60
2022-10-09T20:46:35.528Z,101223.00
2022-10-09T20:49:06.615Z,101223.00
2022-10-09T20:51:35.966Z,101220.40
2022-10-09T20:54:06.325Z,101222.40
2022-10-09T20:56:36.019Z,101218.40
2022-10-09T20:59:04.579Z,101220.20
2022-10-09T21:01:33.194Z,101217.80
2022-10-09T21:04:02.403Z,101213.60
2022-10-09T21:06:31.795Z,101214.80
2022-10-09T21:09:00.864Z,101214.40
2022-10-09T21:11:32.018Z,101220.00
2022-10-09T21:14:00.495Z,101212.20
2022-10-09T21:16:28.958Z,101213.80
2022-10-09T21:18:59.858Z,101214.00
2022-10-09T21:21:30.450Z,101210.20
2022-10-09T21:24:00.109Z,101205.40
2022-10-09T21:26:30.462Z,101205.80
2022-10-09T21:29:00.149Z,101203.40
2022-10-09T21:31:31.047Z,101199.60
2022-10-09T21:34:01.050Z,101197.00
2022-10-09T21:36:50.785Z,101194.00
2022-10-09T21:39:27.447Z,101194.20
2022-10-09T21:41:56.116Z,101190.20
2022-10-09T21:44:24.478Z,101188.40
2022-10-09T21:46:52.941Z,101184.40
2022-10-09T21:49:23.629Z,101187.80
2022-10-09T21:51:52.638Z,101181.40
2022-10-09T21:54:21.103Z,101177.60
2022-10-09T21:56:49.463Z,101182.20
2022-10-09T21:59:17.863Z,101171.80
2022-10-09T22:01:46.195Z,101170.40
2022-10-09T22:04:14.575Z,101170.20
2022-10-09T22:06:42.934Z,101169.40
2022-10-09T22:09:11.420Z,101164.40
2022-10-09T22:11:39.814Z,101166.80
2022-10-09T22:14:08.546Z,101166.60
2022-10-09T22:16:36.852Z,101163.40
2022-10-09T22:19:05.586Z,101168.80
2022-10-09T22:21:33.967Z,101170.00
2022-10-09T22:24:02.347Z,101168.60
2022-10-09T22:26:31.200Z,101165.40
2022-10-09T22:28:59.597Z,101164.80
2022-10-09T22:31:28.409Z,101162.80
2022-10-09T22:33:58.416Z,101166.00
2022-10-09T22:36:29.083Z,101166.00
2022-10-09T22:39:00.247Z,101167.20
2022-10-09T22:41:30.241Z,101163.60
2022-10-09T22:44:01.882Z,101157.60
2022-10-09T23:39:39.957Z,101127.40
2022-10-09T23:42:11.686Z,101125.20
2022-10-09T23:44:43.583Z,101126.20
2022-10-09T23:47:15.337Z,101131.20
2022-10-09T23:49:47.095Z,101124.80
2022-10-09T23:52:18.870Z,101121.40
2022-10-09T23:54:50.615Z,101118.40
2022-10-09T23:57:22.499Z,101116.80
2022-10-09T23:59:54.292Z,101114.00
